createdAt,value
2018-12-01T00:00:56.690Z,100183.71
2018-12-01T00:03:38.507Z,100184.56
2018-12-01T00:06:30.916Z,100188.44
2018-12-01T00:09:13.452Z,100181.55
2018-12-01T00:11:56.082Z,100188.02
2018-12-01T00:14:38.787Z,100185.87
2018-12-01T00:17:22.277Z,100182.89
2018-12-01T00:20:10.500Z,100179.87
2018-12-01T00:22:52.500Z,100178.16
2018-12-01T00:25:34.661Z,100172.56
2018-12-01T00:28:18.466Z,100174.29
2018-12-01T00:31:00.727Z,100182.85
2018-12-01T00:33:44.297Z,100182.01
2018-12-01T00:36:26.863Z,100173.84
2018-12-01T00:39:10.202Z,100173.83
2018-12-01T00:41:52.646Z,100175.59
2018-12-01T00:44:34.780Z,100178.57
2018-12-01T00:47:16.988Z,100181.37
2018-12-01T00:49:59.163Z,100191.48
2018-12-01T00:52:41.652Z,100185.48
2018-12-01T00:55:24.276Z,100185.00
2018-12-01T00:58:06.503Z,100187.03
2018-12-01T01:00:48.878Z,100188.33
2018-12-01T01:03:30.671Z,100192.62
2018-12-01T01:06:13.344Z,100199.89
2018-12-01T01:08:55.785Z,100198.20
2018-12-01T01:11:37.572Z,100199.02
2018-12-01T01:14:19.821Z,100195.12
2018-12-01T01:17:02.382Z,100193.02
2018-12-01T01:19:46.092Z,100196.90
2018-12-01T01:22:28.475Z,100192.67
2018-12-01T01:25:11.631Z,100194.06
2018-12-01T01:27:55.827Z,100198.34
2018-12-01T01:30:38.198Z,100194.13
2018-12-01T01:33:30.451Z,100198.91
2018-12-01T01:36:12.639Z,100201.95
2018-12-01T01:38:54.931Z,100204.09
2018-12-01T01:41:38.835Z,100200.19
2018-12-01T01:44:21.034Z,100202.34
2018-12-01T01:47:02.691Z,100197.62
2018-12-01T01:49:49.236Z,100199.78
2018-12-01T01:52:30.987Z,100198.89
2018-12-01T01:55:12.831Z,100201.89
2018-12-01T01:57:57.467Z,100187.38
2018-12-01T02:00:40.867Z,100186.03
2018-12-01T02:03:23.063Z,100186.94
2018-12-01T02:06:05.058Z,100189.42
2018-12-01T02:08:47.161Z,100182.56
2018-12-01T02:11:29.696Z,100180.48
2018-12-01T02:14:12.619Z,100178.34
2018-12-01T02:16:55.121Z,100177.01
2018-12-01T02:19:37.623Z,100173.16
2018-12-01T02:22:20.624Z,100179.14
2018-12-01T02:25:02.180Z,100174.02
2018-12-01T02:27:44.201Z,100180.41
2018-12-01T02:30:26.011Z,100181.32
2018-12-01T02:33:08.631Z,100178.30
2018-12-01T02:35:51.937Z,100180.05
2018-12-01T02:38:33.524Z,100176.20
2018-12-01T02:41:16.976Z,100179.22
2018-12-01T02:44:10.224Z,100176.23
2018-12-01T02:47:02.576Z,100177.09
2018-12-01T02:49:44.548Z,100179.67
2018-12-01T02:52:26.684Z,100185.66
2018-12-01T02:55:10.843Z,100178.83
2018-12-01T02:57:52.701Z,100186.98
2018-12-01T03:00:35.104Z,100187.42
2018-12-01T03:03:17.539Z,100181.40
2018-12-01T03:06:00.619Z,100183.97
2018-12-01T03:08:43.981Z,100181.38
2018-12-01T03:11:26.110Z,100177.95
2018-12-01T03:14:08.471Z,100174.92
2018-12-01T03:16:51.048Z,100177.48
2018-12-01T03:19:33.284Z,100173.61
2018-12-01T03:22:15.142Z,100173.19
2018-12-01T03:24:56.759Z,100177.03
2018-12-01T03:27:39.951Z,100182.99
2018-12-01T03:30:23.272Z,100183.88
2018-12-01T03:33:05.335Z,100182.99
2018-12-01T03:35:47.715Z,100179.98
2018-12-01T03:38:30.602Z,100179.91
2018-12-01T03:41:12.572Z,100182.48
2018-12-01T03:43:55.090Z,100186.84
2018-12-01T03:46:37.530Z,100189.00
2018-12-01T03:49:19.919Z,100185.14
2018-12-01T03:52:02.414Z,100185.56
2018-12-01T03:54:45.245Z,100186.37
2018-12-01T03:57:27.252Z,100187.57
2018-12-01T04:00:09.844Z,100188.42
2018-12-01T04:02:52.259Z,100185.45
2018-12-01T04:05:34.072Z,100194.81
2018-12-01T04:08:16.936Z,100196.05
2018-12-01T04:10:59.375Z,100190.47
2018-12-01T04:13:41.581Z,100192.59
2018-12-01T04:16:25.257Z,100194.33
2018-12-01T04:19:07.560Z,100194.31
2018-12-01T04:21:49.296Z,100191.30
2018-12-01T04:24:31.006Z,100192.09
2018-12-01T04:27:14.480Z,100186.96
2018-12-01T04:29:56.379Z,100186.54
2018-12-01T04:32:38.652Z,100190.80
2018-12-01T04:35:21.888Z,100192.51
2018-12-01T04:38:04.464Z,100188.18
2018-12-01T04:40:46.864Z,100195.06
2018-12-01T04:43:29.275Z,100196.33
2018-12-01T04:46:11.754Z,100201.00
2018-12-01T04:48:54.217Z,100200.16
2018-12-01T04:51:37.018Z,100198.04
2018-12-01T04:54:19.545Z,100206.59
2018-12-01T04:57:01.629Z,100206.63
2018-12-01T04:59:44.374Z,100210.44
2018-12-01T05:02:26.517Z,100217.72
2018-12-01T05:05:10.332Z,100222.37
2018-12-01T05:07:53.941Z,100215.07
2018-12-01T05:10:36.109Z,100218.97
2018-12-01T05:13:17.772Z,100220.61
2018-12-01T05:16:00.595Z,100226.59
2018-12-01T05:18:43.126Z,100219.77
2018-12-01T05:21:25.271Z,100212.53
2018-12-01T05:24:07.887Z,100213.39
2018-12-01T05:26:50.384Z,100215.53
2018-12-01T05:29:32.036Z,100216.80
2018-12-01T05:32:18.171Z,100213.81
2018-12-01T05:34:59.940Z,100211.30
2018-12-01T05:37:43.854Z,100206.19
2018-12-01T05:40:26.017Z,100209.22
2018-12-01T05:43:08.475Z,100206.69
2018-12-01T05:45:51.686Z,100209.72
2018-12-01T05:48:34.067Z,100212.66
2018-12-01T05:51:16.648Z,100210.14
2018-12-01T05:53:59.138Z,100211.86
2018-12-01T05:56:42.225Z,100212.28
2018-12-01T05:59:24.075Z,100217.00
2018-12-01T06:02:06.912Z,100223.00
2018-12-01T06:04:49.928Z,100220.47
2018-12-01T06:07:31.502Z,100226.08
2018-12-01T06:10:16.929Z,100229.50
2018-12-01T06:13:01.849Z,100226.48
2018-12-01T06:15:44.283Z,100227.45
2018-12-01T06:18:26.806Z,100224.89
2018-12-01T06:21:09.665Z,100223.13
2018-12-01T06:23:51.711Z,100228.20
2018-12-01T06:26:38.039Z,100222.59
2018-12-01T06:29:19.903Z,100227.83
2018-12-01T06:32:02.335Z,100228.73
2018-12-01T06:38:29.264Z,100226.86
2018-12-01T06:41:10.965Z,100225.13
2018-12-01T06:43:52.427Z,100223.45
2018-12-01T06:46:34.338Z,100221.73
2018-12-01T06:49:16.189Z,100218.34
2018-12-01T06:51:57.581Z,100219.58
2018-12-01T06:54:39.591Z,100219.56
2018-12-01T06:57:21.458Z,100220.39
2018-12-01T07:00:02.902Z,100215.70
2018-12-01T07:02:45.356Z,100214.00
2018-12-01T07:05:26.929Z,100214.39
2018-12-01T07:08:08.406Z,100213.13
2018-12-01T07:10:50.370Z,100219.16
2018-12-01T07:13:32.313Z,100226.02
2018-12-01T07:16:13.805Z,100224.01
2018-12-01T07:19:11.450Z,100224.82
2018-12-01T07:21:52.820Z,100224.00
2018-12-01T07:24:34.154Z,100221.06
2018-12-01T07:27:16.195Z,100230.05
2018-12-01T07:29:58.244Z,100224.91
2018-12-01T07:32:39.641Z,100229.66
2018-12-01T07:35:21.552Z,100227.55
2018-12-01T07:38:03.542Z,100236.98
2018-12-01T07:40:45.258Z,100234.88
2018-12-01T07:43:27.198Z,100229.82
2018-12-01T07:46:08.852Z,100225.51
2018-12-01T07:48:50.676Z,100225.09
2018-12-01T07:51:32.333Z,100219.52
2018-12-01T07:54:14.257Z,100222.59
2018-12-01T07:56:55.769Z,100220.03
2018-12-01T07:59:37.873Z,100215.35
2018-12-01T08:02:19.666Z,100211.92
2018-12-01T08:05:01.226Z,100218.84
2018-12-01T08:07:43.025Z,100213.73
2018-12-01T08:10:24.134Z,100215.00
2018-12-01T08:13:05.573Z,100211.61
2018-12-01T08:15:47.520Z,100212.89
2018-12-01T08:18:29.503Z,100216.30
2018-12-01T08:21:10.797Z,100216.31
2018-12-01T08:23:52.586Z,100212.90
2018-12-01T08:26:33.780Z,100219.33
2018-12-01T08:29:15.536Z,100211.62
2018-12-01T08:31:58.231Z,100202.64
2018-12-01T08:34:39.982Z,100205.23
2018-12-01T08:37:21.361Z,100207.80
2018-12-01T08:40:13.587Z,100210.39
2018-12-01T08:42:55.501Z,100216.37
2018-12-01T08:45:37.982Z,100216.81
2018-12-01T08:48:21.049Z,100221.11
2018-12-01T08:51:03.093Z,100219.82
2018-12-01T08:53:44.595Z,100227.99
2018-12-01T08:56:26.353Z,100224.95
2018-12-01T08:59:07.418Z,100215.95
2018-12-01T09:01:48.910Z,100222.42
2018-12-01T09:04:33.910Z,100212.53
2018-12-01T09:07:15.910Z,100218.56
2018-12-01T09:09:57.329Z,100216.42
2018-12-01T09:12:38.973Z,100220.69
2018-12-01T09:15:20.142Z,100215.98
2018-12-01T09:18:01.541Z,100213.41
2018-12-01T09:20:43.281Z,100215.91
2018-12-01T09:23:24.417Z,100221.45
2018-12-01T09:26:06.053Z,100222.71
2018-12-01T09:28:47.536Z,100230.45
2018-12-01T09:31:29.690Z,100232.89
2018-12-01T09:34:11.682Z,100231.41
2018-12-01T09:36:52.966Z,100236.30
2018-12-01T09:39:34.303Z,100231.84
2018-12-01T09:42:16.266Z,100231.94
2018-12-01T09:44:57.422Z,100221.16
2018-12-01T09:47:38.936Z,100227.22
2018-12-01T09:50:20.827Z,100220.80
2018-12-01T09:53:02.998Z,100230.10
2018-12-01T09:55:44.311Z,100220.11
2018-12-01T09:58:26.526Z,100216.68
2018-12-01T10:01:08.143Z,100217.65
2018-12-01T10:03:49.756Z,100214.72
2018-12-01T10:06:31.694Z,100217.45
2018-12-01T10:09:13.875Z,100213.14
2018-12-01T10:11:55.093Z,100215.53
2018-12-01T10:14:36.750Z,100204.66
2018-12-01T10:17:17.910Z,100195.61
2018-12-01T10:19:59.294Z,100193.52
2018-12-01T10:22:41.099Z,100190.21
2018-12-01T10:25:22.431Z,100194.22
2018-12-01T10:28:03.738Z,100187.45
2018-12-01T10:30:45.438Z,100190.27
2018-12-01T10:33:26.478Z,100179.57
2018-12-01T10:36:07.995Z,100172.69
2018-12-01T10:38:49.771Z,100179.53
2018-12-01T10:41:31.076Z,100174.45
2018-12-01T10:44:12.347Z,100159.69
2018-12-01T10:46:54.423Z,100159.83
2018-12-01T10:49:36.175Z,100160.17
2018-12-01T10:52:17.582Z,100156.61
2018-12-01T10:55:00.378Z,100152.89
2018-12-01T10:57:41.602Z,100157.00
2018-12-01T11:00:28.213Z,100158.87
2018-12-01T11:03:16.693Z,100165.47
2018-12-01T11:06:00.049Z,100169.09
2018-12-01T11:08:41.675Z,100165.75
2018-12-01T11:11:23.766Z,100167.91
2018-12-01T11:14:05.360Z,100155.42
2018-12-01T11:16:46.959Z,100150.89
2018-12-01T11:19:28.103Z,100159.31
2018-12-01T11:22:09.467Z,100163.30
2018-12-01T11:24:51.122Z,100160.08
2018-12-01T11:27:32.566Z,100141.98
2018-12-01T11:30:16.795Z,100145.66
2018-12-01T11:32:58.492Z,100150.63
2018-12-01T11:35:40.208Z,100156.69
2018-12-01T11:38:21.517Z,100151.02
2018-12-01T11:41:02.893Z,100143.37
2018-12-01T11:43:44.285Z,100138.28
2018-12-01T11:46:26.250Z,100132.02
2018-12-01T11:49:09.550Z,100133.56
2018-12-01T11:51:49.906Z,100139.64
2018-12-01T11:54:31.515Z,100137.48
2018-12-01T11:57:12.670Z,100136.60
2018-12-01T11:59:54.982Z,100132.09
2018-12-01T12:02:38.005Z,100128.31
2018-12-01T12:05:20.111Z,100127.13
2018-12-01T12:08:13.786Z,100128.31
2018-12-01T12:10:55.250Z,100115.73
2018-12-01T12:13:36.718Z,100114.40
2018-12-01T12:16:18.798Z,100108.45
2018-12-01T12:19:01.461Z,100106.36
2018-12-01T12:21:43.698Z,100104.11
2018-12-01T12:24:26.324Z,100100.70
2018-12-01T12:27:08.869Z,100096.30
2018-12-01T12:29:50.425Z,100089.26
2018-12-01T12:32:32.302Z,100087.16
2018-12-01T12:35:14.546Z,100084.58
2018-12-01T12:37:55.724Z,100082.91
2018-12-01T12:40:39.846Z,100081.44
2018-12-01T12:43:21.816Z,100073.21
2018-12-01T12:46:03.312Z,100080.64
2018-12-01T12:48:44.872Z,100082.51
2018-12-01T12:51:26.742Z,100078.30
2018-12-01T12:54:08.984Z,100078.48
2018-12-01T12:56:50.157Z,100074.55
2018-12-01T12:59:31.579Z,100078.07
2018-12-01T13:02:13.360Z,100067.72
2018-12-01T13:04:54.503Z,100059.55
2018-12-01T13:07:36.139Z,100054.23
2018-12-01T13:10:19.485Z,100051.69
2018-12-01T13:13:00.966Z,100050.34
2018-12-01T13:15:42.393Z,100049.01
2018-12-01T13:18:24.185Z,100055.05
2018-12-01T13:21:05.421Z,100053.77
2018-12-01T13:23:46.687Z,100047.34
2018-12-01T13:26:28.826Z,100058.36
2018-12-01T13:29:11.112Z,100047.44
2018-12-01T13:31:54.525Z,100041.52
2018-12-01T13:34:34.924Z,100049.35
2018-12-01T13:37:18.221Z,100043.66
2018-12-01T13:39:58.153Z,100045.10
2018-12-01T13:42:41.034Z,100045.55
2018-12-01T13:45:23.054Z,100044.19
2018-12-01T13:48:04.639Z,100040.78
2018-12-01T13:50:46.597Z,100036.53
2018-12-01T13:53:28.804Z,100033.17
2018-12-01T13:56:09.973Z,100037.48
2018-12-01T13:58:52.154Z,100031.05
2018-12-01T14:01:34.139Z,100034.02
2018-12-01T14:04:15.483Z,100032.76
2018-12-01T14:06:57.347Z,100035.34
2018-12-01T14:09:39.492Z,100025.44
2018-12-01T14:12:20.950Z,100030.63
2018-12-01T14:15:02.770Z,100026.64
2018-12-01T14:17:44.786Z,100026.25
2018-12-01T14:20:26.182Z,100022.03
2018-12-01T14:23:07.949Z,100025.93
2018-12-01T14:25:49.065Z,100017.66
2018-12-01T14:28:30.573Z,100012.13
2018-12-01T14:31:12.406Z,100016.02
2018-12-01T14:33:54.364Z,100021.20
2018-12-01T14:36:37.234Z,100015.09
2018-12-01T14:39:19.203Z,100016.45
2018-12-01T14:42:00.785Z,100012.98
2018-12-01T14:44:42.608Z,100011.73
2018-12-01T14:47:23.782Z,100006.14
2018-12-01T14:50:07.849Z,100003.97
2018-12-01T14:52:49.733Z,99994.52
2018-12-01T14:55:31.606Z,99989.02
2018-12-01T14:58:13.124Z,99989.02
2018-12-01T15:00:55.133Z,99987.77
2018-12-01T15:03:36.921Z,99983.45
2018-12-01T15:06:18.750Z,99983.49
2018-12-01T15:09:00.675Z,99974.47
2018-12-01T15:11:42.238Z,99971.03
2018-12-01T15:14:24.069Z,99969.83
2018-12-01T15:17:05.577Z,99965.13
2018-12-01T15:19:47.509Z,99961.27
2018-12-01T15:22:30.035Z,99963.37
2018-12-01T15:25:13.437Z,99962.98
2018-12-01T15:27:54.849Z,99967.28
2018-12-01T15:30:36.760Z,99960.48
2018-12-01T15:33:18.707Z,99965.67
2018-12-01T15:36:00.099Z,99961.80
2018-12-01T15:38:42.185Z,99968.25
2018-12-01T15:41:24.155Z,99964.36
2018-12-01T15:44:06.391Z,99962.67
2018-12-01T15:46:48.395Z,99954.06
2018-12-01T15:49:30.474Z,99951.50
2018-12-01T15:52:12.496Z,99946.74
2018-12-01T15:54:55.434Z,99935.56
2018-12-01T15:57:37.432Z,99932.55
2018-12-01T16:00:27.246Z,99925.17
2018-12-01T16:03:09.169Z,99916.13
2018-12-01T16:05:50.910Z,99918.64
2018-12-01T16:08:32.597Z,99910.91
2018-12-01T16:11:22.446Z,99906.18
2018-12-01T16:14:04.456Z,99904.50
2018-12-01T16:16:46.806Z,99899.25
2018-12-01T16:19:28.671Z,99899.70
2018-12-01T16:22:10.529Z,99897.10
2018-12-01T16:24:52.972Z,99891.94
2018-12-01T16:27:34.937Z,99887.17
2018-12-01T16:30:32.297Z,99883.30
2018-12-01T16:33:15.634Z,99887.65
2018-12-01T16:36:00.081Z,99881.20
2018-12-01T16:38:45.030Z,99882.01
2018-12-01T16:41:30.599Z,99880.72
2018-12-01T16:44:12.608Z,99878.20
2018-12-01T16:46:54.018Z,99876.89
2018-12-01T16:49:35.605Z,99871.79
2018-12-01T16:52:16.721Z,99872.63
2018-12-01T16:54:58.468Z,99873.49
2018-12-01T16:57:40.280Z,99870.06
2018-12-01T17:00:22.047Z,99873.95
2018-12-01T17:03:03.459Z,99871.79
2018-12-01T17:05:52.081Z,99871.81
2018-12-01T17:08:33.206Z,99865.72
2018-12-01T17:11:14.709Z,99859.72
2018-12-01T17:13:56.492Z,99858.01
2018-12-01T17:16:38.298Z,99856.30
2018-12-01T17:19:20.121Z,99859.73
2018-12-01T17:22:01.918Z,99850.73
2018-12-01T17:24:43.273Z,99850.30
2018-12-01T17:27:25.017Z,99848.11
2018-12-01T17:30:17.939Z,99833.48
2018-12-01T17:33:00.072Z,99833.51
2018-12-01T17:35:42.533Z,99826.22
2018-12-01T17:38:24.517Z,99817.68
2018-12-01T17:41:10.545Z,99831.40
2018-12-01T17:43:55.161Z,99828.84
2018-12-01T17:46:36.882Z,99830.55
2018-12-01T17:49:18.705Z,99830.98
2018-12-01T17:52:00.785Z,99820.64
2018-12-01T17:54:42.162Z,99815.51
2018-12-01T17:57:23.995Z,99822.37
2018-12-01T18:00:13.638Z,99814.19
2018-12-01T18:02:59.792Z,99817.23
2018-12-01T18:05:45.631Z,99806.49
2018-12-01T18:08:27.221Z,99809.89
2018-12-01T18:11:09.769Z,99811.22
2018-12-01T18:13:51.158Z,99803.50
2018-12-01T18:16:32.717Z,99795.81
2018-12-01T18:19:14.438Z,99800.11
2018-12-01T18:21:56.412Z,99788.55
2018-12-01T18:24:37.697Z,99779.00
2018-12-01T18:27:19.549Z,99777.38
2018-12-01T18:30:01.493Z,99768.41
2018-12-01T18:32:43.218Z,99761.62
2018-12-01T18:35:24.762Z,99757.36
2018-12-01T18:38:06.902Z,99754.77
2018-12-01T18:40:48.505Z,99756.87
2018-12-01T18:43:30.325Z,99748.23
2018-12-01T18:46:14.432Z,99739.19
2018-12-01T18:48:55.714Z,99723.28
2018-12-01T18:51:38.091Z,99717.30
2018-12-01T18:54:22.500Z,99708.23
2018-12-01T18:57:04.649Z,99702.63
2018-12-01T18:59:46.912Z,99685.45
2018-12-01T19:02:29.074Z,99678.23
2018-12-01T19:05:10.492Z,99677.31
2018-12-01T19:07:52.175Z,99679.05
2018-12-01T19:10:34.197Z,99675.65
2018-12-01T19:13:15.674Z,99661.98
2018-12-01T19:15:57.595Z,99655.95
2018-12-01T19:18:40.252Z,99653.76
2018-12-01T19:21:22.121Z,99637.86
2018-12-01T19:24:03.958Z,99640.88
2018-12-01T19:26:45.816Z,99632.73
2018-12-01T19:29:27.238Z,99625.44
2018-12-01T19:32:08.970Z,99621.62
2018-12-01T19:34:50.094Z,99620.27
2018-12-01T19:37:31.873Z,99621.13
2018-12-01T19:40:15.672Z,99609.94
2018-12-01T19:42:57.997Z,99607.27
2018-12-01T19:45:39.862Z,99594.69
2018-12-01T19:48:21.633Z,99597.25
2018-12-01T19:51:03.799Z,99591.23
2018-12-01T19:53:45.065Z,99601.09
2018-12-01T19:56:26.973Z,99589.05
2018-12-01T19:59:08.874Z,99590.74
2018-12-01T20:01:50.298Z,99585.17
2018-12-01T20:04:32.282Z,99581.78
2018-12-01T20:07:14.231Z,99583.53
2018-12-01T20:09:55.731Z,99582.19
2018-12-01T20:12:37.261Z,99582.13
2018-12-01T20:15:36.438Z,99576.88
2018-12-01T20:18:22.277Z,99581.21
2018-12-01T20:21:03.617Z,99578.63
2018-12-01T20:23:44.965Z,99567.41
2018-12-01T20:26:26.820Z,99574.29
2018-12-01T20:29:08.734Z,99574.73
2018-12-01T20:31:50.322Z,99570.40
2018-12-01T20:34:32.133Z,99569.22
2018-12-01T20:37:16.977Z,99563.59
2018-12-01T20:39:58.599Z,99558.90
2018-12-01T20:42:40.887Z,99551.05
2018-12-01T20:45:22.321Z,99549.47
2018-12-01T20:48:03.713Z,99554.20
2018-12-01T20:50:46.657Z,99547.78
2018-12-01T20:53:28.557Z,99539.59
2018-12-01T20:56:13.856Z,99539.94
2018-12-01T20:58:55.417Z,99541.23
2018-12-01T21:01:36.822Z,99540.42
2018-12-01T21:04:18.873Z,99534.85
2018-12-01T21:07:00.941Z,99525.00
2018-12-01T21:09:42.983Z,99527.28
2018-12-01T21:12:24.517Z,99516.15
2018-12-01T21:15:08.901Z,99515.84
2018-12-01T21:17:50.409Z,99514.11
2018-12-01T21:20:31.830Z,99496.05
2018-12-01T21:23:13.169Z,99503.69
2018-12-01T21:25:54.478Z,99501.47
2018-12-01T21:28:35.905Z,99500.56
2018-12-01T21:31:17.238Z,99495.36
2018-12-01T21:33:59.531Z,99495.38
2018-12-01T21:36:41.187Z,99497.07
2018-12-01T21:39:23.411Z,99493.22
2018-12-01T21:42:04.899Z,99492.31
2018-12-01T21:44:46.213Z,99483.58
2018-12-01T21:47:27.523Z,99473.20
2018-12-01T21:50:14.149Z,99471.52
2018-12-01T21:52:55.810Z,99464.62
2018-12-01T21:55:37.793Z,99460.32
2018-12-01T21:58:19.735Z,99463.80
2018-12-01T22:01:02.159Z,99459.09
2018-12-01T22:03:44.226Z,99449.15
2018-12-01T22:06:25.769Z,99447.44
2018-12-01T22:09:08.361Z,99444.98
2018-12-01T22:11:50.341Z,99435.08
2018-12-01T22:14:32.339Z,99441.98
2018-12-01T22:17:14.479Z,99437.68
2018-12-01T22:19:55.597Z,99437.25
2018-12-01T22:22:37.981Z,99433.81
2018-12-01T22:25:19.613Z,99429.09
2018-12-01T22:28:00.996Z,99431.65
2018-12-01T22:30:44.283Z,99426.44
2018-12-01T22:33:26.893Z,99422.91
2018-12-01T22:36:08.498Z,99424.64
2018-12-01T22:38:50.141Z,99423.34
2018-12-01T22:41:32.213Z,99431.41
2018-12-01T22:44:13.564Z,99424.02
2018-12-01T22:46:55.446Z,99433.84
2018-12-01T22:49:37.489Z,99430.89
2018-12-01T22:52:18.870Z,99425.73
2018-12-01T22:55:01.735Z,99421.87
2018-12-01T22:57:45.910Z,99424.38
2018-12-01T23:01:02.512Z,99412.33
2018-12-01T23:03:43.846Z,99406.30
2018-12-01T23:06:25.204Z,99412.26
2018-12-01T23:09:07.418Z,99412.21
2018-12-01T23:11:48.985Z,99404.38
2018-12-01T23:14:30.210Z,99394.53
2018-12-01T23:17:12.026Z,99400.96
2018-12-01T23:19:53.984Z,99401.84
2018-12-01T23:22:35.270Z,99390.73
2018-12-01T23:25:17.062Z,99384.77
2018-12-01T23:27:59.042Z,99378.73
2018-12-01T23:30:42.740Z,99382.58
2018-12-01T23:33:25.628Z,99382.22
2018-12-01T23:36:07.358Z,99384.67
2018-12-01T23:38:49.017Z,99381.24
2018-12-01T23:41:30.368Z,99378.20
2018-12-01T23:44:28.843Z,99369.55
2018-12-01T23:47:11.330Z,99368.70
2018-12-01T23:49:53.267Z,99362.30
2018-12-01T23:52:36.955Z,99363.20
2018-12-01T23:55:18.975Z,99355.90
2018-12-01T23:58:00.317Z,99355.05
